Time;durP1;ratioP1;P1;durP2;ratioP2;P2;SDS_P1;SDS_P2;PMS_P1;PMS_P2;Temp;Humidity;BMP_temperature;BMP_pressure;BME280_temperature;BME280_humidity;BME280_pressure;Samples;Min_cycle;Max_cycle;Signal;HPM_P1;HPM_P2
2022/11/09 00:01:36;;;;;;;0.60;0.60;;;;;;;11.10;100.00;100089.13;5052790;28;20255;-68
2022/11/09 00:04:04;;;;;;;0.63;0.63;;;;;;;11.17;100.00;100112.09;5052973;28;20718;-68
2022/11/09 00:06:32;;;;;;;0.40;0.40;;;;;;;11.15;100.00;100106.13;5053559;28;20200;-68
2022/11/09 00:09:01;;;;;;;0.50;0.50;;;;;;;11.08;100.00;100107.16;5051741;28;20295;-68
2022/11/09 00:11:28;;;;;;;0.87;0.87;;;;;;;10.99;100.00;100105.59;5052388;28;20232;-68
2022/11/09 00:13:56;;;;;;;0.90;0.90;;;;;;;10.99;100.00;100108.16;5050372;28;20296;-68
2022/11/09 00:16:23;;;;;;;0.50;0.50;;;;;;;11.00;100.00;100119.28;5052445;28;20311;-68
2022/11/09 00:18:52;;;;;;;0.80;0.80;;;;;;;11.01;100.00;100115.84;5052941;28;20196;-68
2022/11/09 00:21:20;;;;;;;0.60;0.60;;;;;;;10.75;100.00;100071.91;5052406;28;20203;-68
2022/11/09 00:23:48;;;;;;;0.50;0.50;;;;;;;10.97;100.00;100107.38;5052417;28;20207;-68
2022/11/09 00:26:17;;;;;;;0.80;0.80;;;;;;;10.96;100.00;100112.50;5052719;28;20220;-68
2022/11/09 00:28:44;;;;;;;0.80;0.80;;;;;;;10.98;100.00;100113.34;5052910;28;20203;-68
2022/11/09 00:31:15;;;;;;;0.83;0.83;;;;;;;10.99;100.00;100113.28;5052303;28;20692;-68
2022/11/09 00:33:42;;;;;;;0.60;0.60;;;;;;;11.00;100.00;100111.59;5052506;28;20657;-68
2022/11/09 00:36:14;;;;;;;0.50;0.50;;;;;;;10.92;100.00;100095.53;5052505;28;20288;-68
2022/11/09 00:38:41;;;;;;;0.50;0.50;;;;;;;11.02;100.00;100112.38;5052752;28;20193;-68
2022/11/09 00:41:10;;;;;;;0.80;0.80;;;;;;;11.02;100.00;100108.09;5052325;28;20204;-68
2022/11/09 00:43:37;;;;;;;0.70;0.70;;;;;;;10.94;100.00;100104.00;5051763;28;20196;-68
2022/11/09 00:46:04;;;;;;;0.90;0.90;;;;;;;10.99;100.00;100112.44;5052560;28;20197;-68
2022/11/09 00:48:32;;;;;;;0.60;0.60;;;;;;;10.85;100.00;100094.78;5052150;28;20197;-68
2022/11/09 00:50:59;;;;;;;0.60;0.60;;;;;;;10.96;100.00;100113.38;5051757;28;20209;-68
2022/11/09 00:53:27;;;;;;;0.90;0.90;;;;;;;10.89;100.00;100105.81;5051846;28;20259;-68
2022/11/09 00:55:55;;;;;;;0.50;0.50;;;;;;;10.92;100.00;100116.03;5052220;28;20251;-68
2022/11/09 00:58:22;;;;;;;0.63;0.63;;;;;;;10.91;100.00;100104.94;5052308;28;20578;-68
2022/11/09 01:00:49;;;;;;;0.70;0.70;;;;;;;10.91;100.00;100109.22;5050941;28;20704;-68
2022/11/09 01:03:16;;;;;;;0.47;0.47;;;;;;;10.88;100.00;100093.88;5051001;28;20291;-68
2022/11/09 01:05:44;;;;;;;0.50;0.50;;;;;;;10.86;100.00;100088.75;5051377;28;20193;-68
2022/11/09 01:08:11;;;;;;;0.60;0.60;;;;;;;10.88;100.00;100096.44;5050738;28;20204;-68
2022/11/09 01:10:41;;;;;;;0.83;0.83;;;;;;;10.74;100.00;100075.34;5050667;28;20591;-68
2022/11/09 01:13:09;;;;;;;1.00;1.00;;;;;;;10.80;100.00;100085.47;5050341;28;20216;-68
2022/11/09 01:15:40;;;;;;;1.27;1.27;;;;;;;10.84;100.00;100097.38;5051476;28;20229;-68
2022/11/09 01:18:07;;;;;;;0.60;0.60;;;;;;;10.81;100.00;100098.28;5052111;28;20255;-68
2022/11/09 01:20:34;;;;;;;0.80;0.80;;;;;;;10.82;100.00;100099.13;5051350;28;20200;-68
2022/11/09 01:23:02;;;;;;;1.23;1.23;;;;;;;10.79;100.00;100094.88;5051377;28;20673;-68
2022/11/09 01:25:29;;;;;;;0.50;0.50;;;;;;;10.77;100.00;100098.38;5051608;28;20652;-68
2022/11/09 01:27:56;;;;;;;0.53;0.53;;;;;;;10.77;100.00;100098.38;5051623;28;20621;-68
2022/11/09 01:30:23;;;;;;;0.50;0.50;;;;;;;10.75;100.00;100103.53;5051284;28;20204;-68
2022/11/09 01:32:49;;;;;;;0.70;0.70;;;;;;;10.74;100.00;100101.00;5050862;28;20205;-68
2022/11/09 01:35:16;;;;;;;0.77;0.77;;;;;;;10.72;100.00;100092.50;5051660;28;20217;-68
2022/11/09 01:37:43;;;;;;;0.70;0.70;;;;;;;10.71;100.00;100098.50;5051497;28;20569;-68
2022/11/09 01:40:13;;;;;;;0.83;0.83;;;;;;;10.67;100.00;100094.28;5051528;28;20692;-68
2022/11/09 01:42:40;;;;;;;1.17;1.17;;;;;;;10.66;100.00;100093.47;5050977;28;20208;-68
2022/11/09 01:45:31;;;;;;;1.30;1.30;;;;;;;10.63;100.00;100095.25;5051287;28;20197;-68
2022/11/09 01:48:06;;;;;;;0.53;0.53;;;;;;;10.54;100.00;100089.41;5040960;28;20205;-68
2022/11/09 01:50:41;;;;;;;0.87;0.87;;;;;;;10.30;100.00;100050.59;5050838;28;20572;-68
2022/11/09 01:53:13;;;;;;;1.00;1.00;;;;;;;10.52;100.00;100091.16;5049885;28;20211;-68
2022/11/09 01:55:43;;;;;;;0.83;0.83;;;;;;;10.45;100.00;100094.72;5051011;28;20216;-68
2022/11/09 01:58:15;;;;;;;0.60;0.60;;;;;;;10.35;100.00;100088.06;5050974;28;20212;-68
2022/11/09 02:00:44;;;;;;;0.50;0.50;;;;;;;10.35;100.00;100092.34;5051122;28;20620;-68
2022/11/09 02:03:15;;;;;;;1.53;1.53;;;;;;;10.32;100.00;100100.94;5050592;28;20635;-68
2022/11/09 02:05:43;;;;;;;0.60;0.60;;;;;;;10.30;100.00;100097.56;5048812;28;20233;-68
2022/11/09 02:08:12;;;;;;;0.60;0.60;;;;;;;10.28;100.00;100101.84;5047914;28;20254;-68
2022/11/09 02:10:47;;;;;;;1.80;1.17;;;;;;;10.12;100.00;100085.03;5050237;28;20239;-68
2022/11/09 02:13:16;;;;;;;1.40;1.30;;;;;;;10.19;100.00;100101.16;5050664;28;20196;-68
2022/11/09 02:15:43;;;;;;;1.17;1.17;;;;;;;10.12;100.00;100109.78;5050319;28;20224;-68
2022/11/09 02:18:11;;;;;;;0.80;0.80;;;;;;;10.07;100.00;100099.66;5050734;28;20211;-68
2022/11/09 02:20:48;;;;;;;0.87;0.87;;;;;;;9.92;100.00;100093.03;5049844;28;20287;-68
2022/11/09 02:23:15;;;;;;;0.70;0.70;;;;;;;9.98;100.00;100108.31;5048331;28;20192;-68
2022/11/09 02:25:46;;;;;;;0.40;0.40;;;;;;;9.99;100.00;100109.16;5050932;28;20196;-68
2022/11/09 02:28:15;;;;;;;0.93;0.93;;;;;;;9.97;100.00;100110.91;5048183;28;20201;-68
2022/11/09 02:30:44;;;;;;;0.43;0.43;;;;;;;9.96;100.00;100114.31;5050347;28;20197;-68
2022/11/09 02:33:10;;;;;;;0.40;0.40;;;;;;;9.98;100.00;100117.72;5049953;28;20204;-68
2022/11/09 02:35:37;;;;;;;0.77;0.77;;;;;;;9.87;100.00;100114.47;5049346;28;20219;-68
2022/11/09 02:38:09;;;;;;;0.53;0.53;;;;;;;9.85;100.00;100121.34;5050327;28;20213;-68
2022/11/09 02:40:39;;;;;;;1.10;1.10;;;;;;;9.76;100.00;100112.09;5050004;28;20200;-68
2022/11/09 02:43:09;;;;;;;1.10;1.10;;;;;;;9.81;100.00;100122.25;5050125;28;20197;-68
2022/11/09 02:45:36;;;;;;;0.87;0.87;;;;;;;9.79;100.00;100117.16;5049502;28;20200;-68
2022/11/09 02:48:03;;;;;;;0.80;0.80;;;;;;;9.71;100.00;100124.13;5050413;28;20230;-68
2022/11/09 02:50:30;;;;;;;0.40;0.40;;;;;;;9.70;100.00;100121.56;5049909;28;20291;-68
2022/11/09 02:52:56;;;;;;;0.50;0.50;;;;;;;9.68;100.00;100116.50;5050532;28;20604;-68
2022/11/09 02:55:25;;;;;;;0.80;0.80;;;;;;;9.68;100.00;100119.06;5049790;28;20220;-67
2022/11/09 02:57:51;;;;;;;0.83;0.83;;;;;;;9.69;100.00;100114.78;5050594;28;20208;-68
2022/11/09 03:00:18;;;;;;;0.57;0.57;;;;;;;9.68;100.00;100118.19;5050008;28;20220;-68
2022/11/09 03:02:45;;;;;;;0.50;0.50;;;;;;;9.66;100.00;100119.94;5050037;28;20201;-68
2022/11/09 03:05:12;;;;;;;0.70;0.70;;;;;;;9.60;100.00;100110.63;5048978;28;20204;-68
2022/11/09 03:07:39;;;;;;;0.60;0.60;;;;;;;9.70;100.00;100121.56;5049018;28;20213;-68
2022/11/09 03:10:06;;;;;;;0.40;0.40;;;;;;;9.73;100.00;100121.53;5049963;28;20212;-68
2022/11/09 03:12:34;;;;;;;1.27;1.27;;;;;;;9.69;100.00;100119.91;5050077;28;20242;-68
2022/11/09 03:15:04;;;;;;;0.50;0.50;;;;;;;9.58;100.00;100101.28;5050048;28;20727;-68
2022/11/09 03:17:32;;;;;;;0.50;0.50;;;;;;;9.69;100.00;100130.16;5049711;28;20222;-67
2022/11/09 03:19:58;;;;;;;0.80;0.80;;;;;;;9.70;100.00;100131.81;5049544;28;20600;-68
2022/11/09 03:22:26;;;;;;;1.07;1.07;;;;;;;9.70;100.00;100129.25;5050238;28;20223;-68
2022/11/09 03:24:52;;;;;;;0.70;0.70;;;;;;;9.67;100.00;100131.84;5049966;28;20201;-68
2022/11/09 03:27:19;;;;;;;0.60;0.60;;;;;;;9.63;100.00;100120.00;5049916;28;20204;-68
2022/11/09 03:29:48;;;;;;;0.70;0.70;;;;;;;9.61;100.00;100124.28;5049775;28;20680;-68
2022/11/09 03:32:14;;;;;;;0.50;0.50;;;;;;;9.60;100.00;100130.25;5053580;28;20200;-68
2022/11/09 03:34:41;;;;;;;0.97;0.97;;;;;;;9.42;100.00;100109.19;5053755;28;20201;-68
2022/11/09 03:37:08;;;;;;;0.73;0.73;;;;;;;9.54;100.00;100125.22;5049664;28;20213;-68
2022/11/09 03:39:35;;;;;;;0.67;0.67;;;;;;;9.43;100.00;100123.66;5053317;28;20752;-68
2022/11/09 03:42:02;;;;;;;0.50;0.50;;;;;;;9.41;100.00;100125.41;5053690;28;20204;-68
2022/11/09 03:44:28;;;;;;;1.43;1.33;;;;;;;9.33;100.00;100123.84;5053224;28;20209;-68
2022/11/09 03:46:56;;;;;;;0.80;0.80;;;;;;;9.31;100.00;100134.06;5053554;28;20235;-68
2022/11/09 03:49:23;;;;;;;0.40;0.40;;;;;;;9.30;100.00;100134.09;5053660;28;20209;-68
2022/11/09 03:51:51;;;;;;;0.90;0.90;;;;;;;9.24;100.00;100117.09;5050699;28;20295;-67
2022/11/09 03:54:18;;;;;;;0.80;0.80;;;;;;;9.33;100.00;100134.91;5051943;28;20228;-68
2022/11/09 03:56:45;;;;;;;0.60;0.60;;;;;;;9.28;100.00;100131.56;5052771;28;20224;-68
2022/11/09 03:59:11;;;;;;;1.33;1.23;;;;;;;9.20;100.00;100120.59;5050672;28;20602;-68
2022/11/09 04:01:38;;;;;;;0.53;0.53;;;;;;;9.24;100.00;100132.44;5052778;28;20584;-68
2022/11/09 04:04:07;;;;;;;0.53;0.53;;;;;;;9.22;100.00;100134.19;5051812;28;20213;-68
2022/11/09 04:06:33;;;;;;;1.03;1.03;;;;;;;9.21;100.00;100126.56;5052970;28;20205;-68
2022/11/09 04:09:00;;;;;;;0.60;0.60;;;;;;;9.19;100.00;100129.13;5053317;28;20204;-68
2022/11/09 04:11:27;;;;;;;1.27;1.27;;;;;;;9.26;100.00;100128.19;5052825;28;20266;-68
2022/11/09 04:13:54;;;;;;;1.07;1.07;;;;;;;9.34;100.00;100121.22;5052797;28;20193;-68
2022/11/09 04:16:20;;;;;;;0.40;0.40;;;;;;;9.33;100.00;100123.84;5052824;28;20228;-68
2022/11/09 04:18:47;;;;;;;1.03;1.03;;;;;;;9.31;100.00;100128.97;5052841;28;20197;-68
2022/11/09 04:21:15;;;;;;;0.50;0.50;;;;;;;9.35;100.00;100125.50;5052542;28;20208;-68
2022/11/09 04:23:42;;;;;;;0.83;0.83;;;;;;;9.39;100.00;100126.31;5051783;28;20204;-68
2022/11/09 04:26:09;;;;;;;0.40;0.40;;;;;;;9.40;100.00;100116.03;5052592;28;20201;-68
2022/11/09 04:28:36;;;;;;;0.60;0.60;;;;;;;9.40;100.00;100128.81;5053160;28;20585;-67
2022/11/09 04:31:03;;;;;;;0.60;0.60;;;;;;;9.42;100.00;100123.69;5052519;28;20200;-68
2022/11/09 04:33:30;;;;;;;0.57;0.57;;;;;;;9.46;100.00;100128.75;5051849;28;20197;-68
2022/11/09 04:36:02;;;;;;;1.47;1.43;;;;;;;9.47;100.00;100130.44;5051142;28;20213;-68
2022/11/09 04:38:30;;;;;;;5.10;1.00;;;;;;;9.41;100.00;100107.50;5051536;28;20676;-67
2022/11/09 04:41:01;;;;;;;0.60;0.60;;;;;;;9.54;100.00;100130.34;5052468;28;20197;-68
2022/11/09 04:43:28;;;;;;;0.53;0.53;;;;;;;9.57;100.00;100126.03;5051705;28;20669;-68
2022/11/09 04:45:55;;;;;;;0.50;0.50;;;;;;;9.59;100.00;100129.44;5052414;28;20715;-67
2022/11/09 04:48:22;;;;;;;2.43;1.10;;;;;;;9.62;100.00;100133.66;5050557;28;20250;-68
2022/11/09 04:50:48;;;;;;;0.80;0.80;;;;;;;9.64;100.00;100137.03;5048639;28;20208;-68
2022/11/09 04:53:15;;;;;;;0.80;0.80;;;;;;;9.65;100.00;100136.16;5044406;28;20255;-68
2022/11/09 04:55:43;;;;;;;0.77;0.77;;;;;;;9.63;100.00;100140.47;5043006;28;20711;-67
2022/11/09 04:58:11;;;;;;;1.10;1.10;;;;;;;9.65;100.00;100141.28;5045407;28;20645;-67
2022/11/09 05:00:39;;;;;;;0.70;0.70;;;;;;;9.68;100.00;100143.81;5044791;28;20661;-68
2022/11/09 05:03:07;;;;;;;0.60;0.60;;;;;;;9.65;100.00;100144.69;5049939;28;20254;-68
2022/11/09 05:05:34;;;;;;;0.43;0.43;;;;;;;9.63;100.00;100137.91;5051268;28;20193;-68
2022/11/09 05:08:01;;;;;;;0.60;0.60;;;;;;;9.59;100.00;100123.47;5051841;28;20197;-67
2022/11/09 05:10:28;;;;;;;0.60;0.60;;;;;;;9.70;100.00;100136.94;5051855;28;20193;-68
2022/11/09 05:13:00;;;;;;;0.90;0.90;;;;;;;9.70;100.00;100136.94;5051619;28;20196;-67
2022/11/09 05:15:27;;;;;;;0.60;0.60;;;;;;;9.74;100.00;100143.72;5051212;28;20219;-68
2022/11/09 05:17:54;;;;;;;1.43;1.43;;;;;;;9.75;100.00;100142.84;5051134;28;20251;-68
2022/11/09 05:20:21;;;;;;;0.50;0.50;;;;;;;9.72;100.00;100140.34;5050595;28;20205;-68
2022/11/09 05:25:31;;;;;;;0.47;0.47;;;;;;;9.79;100.00;100141.94;5051359;28;20365;-68
2022/11/09 05:28:00;;;;;;;0.90;0.90;;;;;;;9.80;100.00;100148.72;5049242;28;20212;-67
2022/11/09 05:30:27;;;;;;;0.77;0.77;;;;;;;9.80;100.00;100138.50;5045324;28;20234;-67
2022/11/09 05:32:53;;;;;;;4.43;0.90;;;;;;;9.83;100.00;100149.53;5046109;28;20649;-67
2022/11/09 05:35:20;;;;;;;0.60;0.60;;;;;;;9.92;100.00;100163.91;5045664;28;20209;-68
2022/11/09 05:37:48;;;;;;;0.57;0.57;;;;;;;9.88;100.00;100147.75;5048028;28;20220;-68
2022/11/09 05:40:16;;;;;;;0.50;0.50;;;;;;;9.93;100.00;100153.66;5050281;28;20196;-68
2022/11/09 05:42:43;;;;;;;1.10;1.10;;;;;;;9.91;100.00;100154.56;5048860;28;20208;-68
2022/11/09 05:45:14;;;;;;;1.33;1.23;;;;;;;9.98;100.00;100167.22;5050487;28;20204;-68
2022/11/09 05:47:43;;;;;;;0.50;0.50;;;;;;;10.00;100.00;100162.09;5051323;28;20204;-68
2022/11/09 05:50:15;;;;;;;0.67;0.67;;;;;;;10.01;100.00;100168.91;5050428;28;20192;-67
2022/11/09 05:52:42;;;;;;;0.83;0.83;;;;;;;10.05;100.00;100174.84;5050284;28;20209;-68
2022/11/09 05:55:09;;;;;;;1.20;1.20;;;;;;;10.06;100.00;100177.34;5048936;28;20278;-67
2022/11/09 05:57:36;;;;;;;0.53;0.53;;;;;;;9.99;100.00;100166.34;5049472;28;20295;-68
2022/11/09 06:00:05;;;;;;;0.90;0.90;;;;;;;10.11;100.00;100185.84;5049394;28;20212;-68
2022/11/09 06:02:33;;;;;;;4.43;2.43;;;;;;;10.14;100.00;100184.97;5049001;28;20228;-67
2022/11/09 06:05:00;;;;;;;1.07;1.07;;;;;;;10.13;100.00;100189.22;5048094;28;20204;-67
2022/11/09 06:07:26;;;;;;;0.60;0.60;;;;;;;10.15;100.00;100192.59;5049362;28;20205;-68
2022/11/09 06:09:53;;;;;;;0.50;0.50;;;;;;;10.16;100.00;100196.88;5049855;28;20293;-67
2022/11/09 06:12:20;;;;;;;0.57;0.57;;;;;;;10.13;100.00;100198.59;5050279;28;20204;-68
2022/11/09 06:14:47;;;;;;;0.70;0.70;;;;;;;10.17;100.00;100196.00;5049046;28;20798;-68
2022/11/09 06:17:14;;;;;;;0.60;0.60;;;;;;;10.16;100.00;100194.31;5047618;28;20217;-68
2022/11/09 06:19:42;;;;;;;0.80;0.80;;;;;;;10.16;100.00;100196.88;5048981;28;20553;-68
2022/11/09 06:22:09;;;;;;;0.80;0.80;;;;;;;10.23;100.00;100200.19;5045424;28;20217;-67
2022/11/09 06:24:36;;;;;;;1.40;1.30;;;;;;;10.26;100.00;100200.97;5044067;28;20205;-68
2022/11/09 06:27:03;;;;;;;0.90;0.90;;;;;;;10.26;100.00;100200.13;5047679;28;20193;-69
2022/11/09 06:29:29;;;;;;;1.83;1.73;;;;;;;10.27;100.00;100202.69;5048164;28;20588;-68
2022/11/09 06:31:56;;;;;;;0.83;0.83;;;;;;;10.31;100.00;100204.31;5049566;28;20209;-69
2022/11/09 06:34:23;;;;;;;1.17;1.17;;;;;;;10.21;100.00;100181.44;5049895;28;20258;-69
2022/11/09 06:36:51;;;;;;;0.50;0.50;;;;;;;10.34;100.00;100199.13;5049666;28;20220;-69
2022/11/09 06:39:18;;;;;;;0.60;0.60;;;;;;;10.40;100.00;100199.03;5049741;28;20204;-69
2022/11/09 06:41:45;;;;;;;1.37;1.37;;;;;;;10.38;100.00;100203.34;5049181;28;20216;-69
2022/11/09 06:44:12;;;;;;;0.53;0.53;;;;;;;10.40;100.00;100196.47;5048718;28;20201;-69
2022/11/09 06:46:38;;;;;;;0.60;0.60;;;;;;;10.43;100.00;100204.13;5049947;28;20203;-69
2022/11/09 06:49:05;;;;;;;0.70;0.70;;;;;;;10.42;100.00;100202.44;5049340;28;20584;-69
2022/11/09 06:51:32;;;;;;;0.50;0.50;;;;;;;10.38;100.00;100205.91;5049473;28;20648;-69
2022/11/09 06:54:00;;;;;;;0.80;0.80;;;;;;;10.39;100.00;100201.63;5041797;28;20205;-69
2022/11/09 06:56:27;;;;;;;2.00;2.00;;;;;;;10.39;100.00;100192.22;5047532;28;20220;-68
2022/11/09 06:58:54;;;;;;;0.70;0.70;;;;;;;10.43;100.00;100191.31;5046422;28;20330;-69
2022/11/09 07:01:25;;;;;;;0.63;0.63;;;;;;;10.52;100.00;100192.88;5048710;28;20200;-69
2022/11/09 07:03:52;;;;;;;0.77;0.77;;;;;;;10.57;100.00;100192.75;5048067;28;20203;-69
2022/11/09 07:06:19;;;;;;;0.50;0.50;;;;;;;10.64;100.00;100184.94;5043221;28;20258;-69
2022/11/09 07:08:46;;;;;;;0.80;0.80;;;;;;;10.58;100.00;100186.78;5052239;28;20212;-69
2022/11/09 07:11:16;;;;;;;0.90;0.90;;;;;;;10.52;100.00;100193.72;5053076;28;20201;-69
2022/11/09 07:13:43;;;;;;;0.60;0.60;;;;;;;10.57;100.00;100185.91;5053636;28;20200;-67
2022/11/09 07:16:11;;;;;;;0.70;0.70;;;;;;;10.62;100.00;100183.28;5052795;28;20314;-67
2022/11/09 07:18:38;;;;;;;0.77;0.77;;;;;;;10.60;100.00;100185.03;5051789;28;20819;-66
2022/11/09 07:21:05;;;;;;;1.53;1.43;;;;;;;10.57;100.00;100177.38;5052778;28;20576;-67
2022/11/09 07:23:32;;;;;;;0.80;0.80;;;;;;;10.64;100.00;100181.53;5052766;28;20204;-68
2022/11/09 07:25:59;;;;;;;0.53;0.53;;;;;;;10.69;100.00;100180.59;5052777;28;20204;-68
2022/11/09 07:28:27;;;;;;;1.60;1.60;;;;;;;10.84;100.00;100187.16;5052589;28;20208;-69
2022/11/09 07:30:54;;;;;;;1.80;0.90;;;;;;;10.99;100.00;100184.28;5052802;28;20270;-70
2022/11/09 07:33:22;;;;;;;0.70;0.70;;;;;;;11.17;100.00;100183.09;5052925;28;20200;-69
2022/11/09 07:35:49;;;;;;;2.33;1.00;;;;;;;11.31;100.00;100181.91;5052903;28;20304;-69
2022/11/09 07:38:16;;;;;;;1.93;1.83;;;;;;;11.44;100.00;100182.50;5051068;28;20270;-68
2022/11/09 07:40:43;;;;;;;1.30;1.30;;;;;;;11.51;100.00;100184.06;5043563;28;20212;-68
2022/11/09 07:43:12;;;;;;;0.60;0.60;;;;;;;11.72;100.00;100185.38;5050111;28;20197;-68
2022/11/09 07:45:40;;;;;;;1.03;1.03;;;;;;;11.80;100.00;100186.03;5051415;28;20204;-68
2022/11/09 07:48:09;;;;;;;0.67;0.67;;;;;;;12.01;100.00;100180.41;5051573;28;20201;-68
2022/11/09 07:50:37;;;;;;;1.97;1.97;;;;;;;12.24;100.00;100188.41;5049885;28;20650;-68
2022/11/09 07:53:06;;;;;;;0.70;0.70;;;;;;;12.39;100.00;100187.19;5051670;28;20258;-68
2022/11/09 07:55:33;;;;;;;0.60;0.60;;;;;;;12.51;100.00;100187.72;5052920;28;20276;-70
2022/11/09 07:58:02;;;;;;;0.50;0.50;;;;;;;12.70;100.00;100193.22;5051970;28;20306;-70
2022/11/09 08:00:31;;;;;;;0.60;0.60;;;;;;;12.77;100.00;100188.75;5051499;28;20205;-71
2022/11/09 08:03:00;;;;;;;1.87;1.87;;;;;;;12.84;100.00;100195.44;5052965;28;20292;-71
2022/11/09 08:05:27;;;;;;;0.60;0.60;;;;;;;13.01;100.00;100188.97;5041738;28;20209;-67
2022/11/09 08:07:58;;;;;;;0.63;0.63;;;;;;;13.12;100.00;100191.25;5049444;28;20197;-69
2022/11/09 08:10:25;;;;;;;1.53;1.53;;;;;;;13.24;100.00;100185.78;5051252;28;20209;-69
2022/11/09 08:12:56;;;;;;;1.17;1.17;;;;;;;13.34;100.00;100189.78;5052479;28;20612;-68
2022/11/09 08:15:24;;;;;;;1.43;1.43;;;;;;;13.40;100.00;100187.03;5052585;28;20221;-68
2022/11/09 08:17:51;;;;;;;1.07;1.07;;;;;;;13.42;100.00;100190.41;5051256;28;20213;-67
2022/11/09 08:20:20;;;;;;;0.50;0.50;;;;;;;13.54;100.00;100191.75;5051958;28;20211;-67
2022/11/09 08:22:47;;;;;;;0.70;0.70;;;;;;;13.61;100.00;100196.69;5051962;28;20301;-68
2022/11/09 08:25:14;;;;;;;0.53;0.53;;;;;;;13.68;100.00;100192.19;5050820;28;20205;-68
2022/11/09 08:27:42;;;;;;;0.90;0.90;;;;;;;13.67;100.00;100199.09;5051804;28;20201;-69
2022/11/09 08:30:13;;;;;;;1.07;1.07;;;;;;;13.87;100.00;100197.63;5051634;28;20620;-69
2022/11/09 08:32:41;;;;;;;1.37;1.37;;;;;;;13.94;100.00;100199.13;5051938;28;20581;-68
2022/11/09 08:35:10;;;;;;;0.50;0.50;;;;;;;14.05;99.96;100194.50;5051534;28;20295;-68
2022/11/09 08:37:38;;;;;;;0.60;0.60;;;;;;;14.18;99.84;100198.38;5042709;28;20309;-66
2022/11/09 08:40:07;;;;;;;1.43;1.43;;;;;;;14.30;99.19;100197.97;5051011;28;20212;-66
2022/11/09 08:42:34;;;;;;;1.27;1.27;;;;;;;14.38;97.96;100195.19;5051304;28;20205;-66
2022/11/09 08:45:00;;;;;;;1.10;1.10;;;;;;;14.51;98.29;100202.44;5051280;28;20201;-66
2022/11/09 08:47:28;;;;;;;0.80;0.80;;;;;;;14.68;97.13;100194.97;5051427;28;20227;-67
2022/11/09 08:49:54;;;;;;;1.33;1.33;;;;;;;14.71;95.81;100194.88;5050617;28;20211;-67
2022/11/09 08:52:21;;;;;;;1.47;1.37;;;;;;;14.82;95.33;100196.25;5050139;28;20219;-66
2022/11/09 08:54:50;;;;;;;0.90;0.90;;;;;;;14.95;95.17;100192.34;5049411;28;20209;-66
2022/11/09 08:57:17;;;;;;;0.80;0.80;;;;;;;15.12;94.14;100200.34;5047746;28;20665;-66
2022/11/09 08:59:44;;;;;;;0.70;0.70;;;;;;;15.27;93.33;100199.78;5049786;28;20621;-66
2022/11/09 09:02:12;;;;;;;0.70;0.70;;;;;;;15.41;92.62;100199.28;5050055;28;20204;-66
2022/11/09 09:04:39;;;;;;;0.83;0.83;;;;;;;15.45;92.21;100196.50;5051465;28;20197;-66
2022/11/09 09:07:07;;;;;;;0.50;0.50;;;;;;;15.49;90.39;100200.69;5050948;28;20538;-66
2022/11/09 09:09:34;;;;;;;0.90;0.90;;;;;;;15.52;89.67;100198.00;5050923;28;20259;-67
2022/11/09 09:12:02;;;;;;;3.20;2.97;;;;;;;15.58;88.89;100190.00;5051201;28;20290;-66
2022/11/09 09:14:29;;;;;;;0.50;0.50;;;;;;;15.64;88.82;100189.78;5050842;28;20210;-66
2022/11/09 09:16:56;;;;;;;1.20;1.17;;;;;;;15.74;89.36;100180.75;5050271;28;20658;-66
2022/11/09 09:19:23;;;;;;;1.63;1.63;;;;;;;15.86;88.97;100187.22;5049035;28;20279;-66
2022/11/09 09:21:49;;;;;;;0.50;0.50;;;;;;;16.05;87.37;100185.59;5049944;28;20205;-65
2022/11/09 09:24:16;;;;;;;0.80;0.80;;;;;;;16.04;86.33;100183.06;5048970;28;20302;-65
2022/11/09 09:26:44;;;;;;;1.93;1.93;;;;;;;16.00;86.39;100186.66;5048384;28;20212;-65
2022/11/09 09:29:13;;;;;;;0.80;0.80;;;;;;;16.11;86.21;100175.00;5050158;28;20201;-66
2022/11/09 09:31:41;;;;;;;0.90;0.90;;;;;;;16.20;86.60;100176.34;5050463;28;20251;-68
2022/11/09 09:34:07;;;;;;;1.07;1.07;;;;;;;16.33;84.94;100174.94;5049296;28;20585;-66
2022/11/09 09:36:35;;;;;;;0.70;0.70;;;;;;;16.39;83.96;100174.69;5050439;28;20266;-66
2022/11/09 09:39:02;;;;;;;0.57;0.57;;;;;;;16.40;83.89;100171.22;5051290;28;20228;-66
2022/11/09 09:41:36;;;;;;;0.50;0.50;;;;;;;16.49;84.62;100170.81;5049369;28;20258;-66
2022/11/09 09:44:19;;;;;;;2.33;1.33;;;;;;;16.60;83.59;100163.47;5049273;28;20205;-66
2022/11/09 09:46:51;;;;;;;1.30;1.30;;;;;;;16.72;83.51;100162.94;5043836;28;20209;-66
2022/11/09 09:49:24;;;;;;;0.77;0.77;;;;;;;16.71;82.73;100158.66;5045737;28;20213;-65
2022/11/09 09:51:56;;;;;;;1.00;0.90;;;;;;;16.76;82.28;100153.31;5045560;28;20566;-66
2022/11/09 09:54:26;;;;;;;1.60;1.60;;;;;;;16.84;82.53;100150.38;5046648;28;20224;-66
2022/11/09 09:56:57;;;;;;;0.80;0.80;;;;;;;16.95;82.60;100142.97;5048937;28;20223;-66
2022/11/09 09:59:34;;;;;;;0.63;0.63;;;;;;;16.98;81.49;100145.44;5050156;28;20208;-66
2022/11/09 10:02:01;;;;;;;0.80;0.80;;;;;;;17.04;81.29;100142.56;5049339;28;20219;-65
2022/11/09 10:04:37;;;;;;;0.80;0.80;;;;;;;16.96;81.21;100129.13;5043045;28;20260;-65
2022/11/09 10:07:11;;;;;;;1.17;1.17;;;;;;;17.11;81.31;100138.78;5043212;28;20204;-65
2022/11/09 10:10:00;;;;;;;0.80;0.80;;;;;;;17.14;80.63;100144.69;5047842;28;20208;-66
2022/11/09 10:12:40;;;;;;;1.43;1.27;;;;;;;17.18;80.65;100132.44;5049592;28;20723;-66
2022/11/09 10:15:17;;;;;;;0.97;0.97;;;;;;;17.27;80.71;100132.00;5049410;28;20719;-66
2022/11/09 10:17:57;;;;;;;0.70;0.70;;;;;;;17.31;79.51;100121.44;5047541;28;20216;-66
2022/11/09 10:20:45;;;;;;;1.27;1.27;;;;;;;17.43;80.12;100125.19;5046755;28;20251;-66
2022/11/09 10:23:26;;;;;;;1.23;1.23;;;;;;;17.55;79.06;100122.06;5043736;28;20628;-66
2022/11/09 10:26:01;;;;;;;3.50;1.20;;;;;;;17.64;78.54;100120.81;5046423;28;20200;-66
2022/11/09 10:28:29;;;;;;;0.63;0.63;;;;;;;17.59;76.90;100122.75;5046716;28;20204;-66
2022/11/09 10:30:59;;;;;;;1.27;1.27;;;;;;;17.61;77.39;100123.53;5045912;28;20303;-66
2022/11/09 10:33:28;;;;;;;0.90;0.90;;;;;;;17.66;77.06;100126.75;5044676;28;20208;-69
2022/11/09 10:36:01;;;;;;;0.50;0.50;;;;;;;17.66;77.90;100111.19;5046883;28;20204;-67
2022/11/09 10:38:32;;;;;;;0.70;0.70;;;;;;;17.76;76.24;100121.06;5048111;28;20601;-68
2022/11/09 10:41:04;;;;;;;2.83;1.13;;;;;;;17.75;76.52;100111.59;5047287;28;20592;-68
2022/11/09 10:43:31;;;;;;;0.83;0.83;;;;;;;17.76;76.73;100105.50;5046921;28;20201;-67
2022/11/09 10:46:03;;;;;;;0.73;0.73;;;;;;;17.86;76.79;100107.63;5049425;28;20696;-69
2022/11/09 10:48:33;;;;;;;0.60;0.60;;;;;;;17.76;76.20;100110.69;5044681;28;20201;-68
2022/11/09 10:51:00;;;;;;;0.80;0.80;;;;;;;17.68;75.80;100115.38;5044500;28;20254;-68
2022/11/09 10:53:28;;;;;;;0.40;0.40;;;;;;;17.69;76.48;100108.44;5047208;28;20212;-68
2022/11/09 10:55:57;;;;;;;0.63;0.63;;;;;;;17.34;76.06;100053.06;5044988;28;20232;-69
2022/11/09 10:58:30;;;;;;;0.40;0.40;;;;;;;17.66;76.65;100101.66;5046471;28;20236;-68
2022/11/09 11:01:01;;;;;;;0.87;0.87;;;;;;;17.76;76.46;100102.91;5049195;28;20196;-68
2022/11/09 11:03:30;;;;;;;1.00;1.00;;;;;;;17.82;76.76;100097.41;5045333;28;20223;-68
2022/11/09 11:05:58;;;;;;;1.13;1.13;;;;;;;17.93;75.94;100093.47;5046886;28;20557;-69
2022/11/09 11:08:35;;;;;;;1.10;1.10;;;;;;;17.86;75.49;100097.25;5047155;28;20258;-68
2022/11/09 11:11:17;;;;;;;0.73;0.73;;;;;;;17.81;75.75;100097.47;5046254;28;20247;-68
2022/11/09 11:13:44;;;;;;;0.87;0.87;;;;;;;17.80;76.22;100075.88;5041842;28;20211;-67
2022/11/09 11:16:37;;;;;;;1.20;1.20;;;;;;;17.84;76.05;100079.16;5045445;28;20240;-67
2022/11/09 11:19:04;;;;;;;0.60;0.60;;;;;;;17.92;75.73;100082.22;5040760;28;20235;-68
2022/11/09 11:21:31;;;;;;;0.50;0.50;;;;;;;17.93;77.19;100063.16;5047939;28;20632;-67
2022/11/09 11:24:19;;;;;;;0.50;0.50;;;;;;;18.03;75.51;100066.97;5049047;28;20676;-68
2022/11/09 11:26:52;;;;;;;0.73;0.73;;;;;;;18.03;75.19;100069.56;5043806;28;20304;-67
2022/11/09 11:29:35;;;;;;;0.70;0.70;;;;;;;18.00;74.62;100063.69;5045137;28;20200;-68
2022/11/09 11:32:03;;;;;;;0.80;0.80;;;;;;;18.06;75.12;100055.63;5047868;28;20676;-68